.
WxDataArchive / Data Records for 2010-10-26
2010-10-25 October 2010 2010-10-27

Data Records for Tuesday, 26 October 2010

Time	Temp	Chill	HIndex	Humid	Dewpt	 Wind 	HiWind	WindDir	Rain 	Barom 
-----	----	-----	------	-----	-----	------	------	-------	-----	----- 
00:00	63.9	63.9	63.9	77	56.5	1	3	90	0.00	29.556 
00:05	63.9	63.9	63.9	77	56.5	1	4	112	0.00	29.556 
00:10	64.0	64.0	64.0	77	56.6	2	4	90	0.00	29.556 
00:15	64.0	64.0	64.0	77	56.6	1	3	292	0.00	29.549 
00:20	64.2	64.2	64.2	77	56.8	1	4	90	0.00	29.549 
00:25	64.2	64.2	64.2	78	57.2	1	4	45	0.00	29.549 
00:30	64.2	64.2	64.2	77	56.8	1	9	112	0.00	29.543 
00:35	64.3	64.3	64.3	77	56.9	2	6	90	0.00	29.543 
00:40	64.5	64.5	64.5	76	56.8	2	7	112	0.00	29.543 
00:45	64.5	64.5	64.5	76	56.8	2	8	112	0.00	29.539 
00:50	64.7	64.7	64.7	76	57.0	2	5	90	0.00	29.539 
00:55	64.8	64.8	64.8	76	57.0	1	5	112	0.00	29.539 
01:00	64.8	64.8	64.8	76	57.0	1	6	68	0.00	29.534 
01:05	64.8	64.8	64.8	76	57.0	1	4	270	0.00	29.534 
01:10	64.8	64.8	64.8	76	57.0	2	7	112	0.00	29.534 
01:15	64.8	64.8	64.8	76	57.0	1	4	90	0.00	29.529 
01:20	64.8	64.8	64.8	76	57.0	2	6	112	0.00	29.529 
01:25	64.8	64.8	64.8	76	57.0	2	6	68	0.00	29.529 
01:30	65.0	65.0	65.0	75	56.9	1	6	90	0.00	29.518 
01:35	65.0	65.0	65.0	75	56.9	2	6	112	0.00	29.518 
01:40	65.0	65.0	65.0	75	56.9	3	7	90	0.00	29.518 
01:45	65.0	65.0	65.0	75	56.9	1	4	112	0.00	29.515 
01:50	65.0	65.0	65.0	75	56.9	2	6	68	0.00	29.515 
01:55	65.0	65.0	65.0	75	56.9	1	5	112	0.00	29.515 
02:00	65.0	65.0	65.0	75	56.9	1	5	112	0.00	29.514 
02:05	65.2	65.2	65.2	75	57.1	2	5	68	0.00	29.514 
02:10	65.3	65.3	65.3	75	57.2	3	7	90	0.00	29.514 
02:15	65.5	65.5	65.5	74	57.0	2	5	112	0.00	29.500 
02:20	65.5	65.5	65.5	74	57.0	2	6	112	0.00	29.500 
02:25	65.6	65.6	65.6	74	57.1	2	5	112	0.00	29.500 
02:30	65.6	65.6	65.6	74	57.1	2	6	90	0.00	29.494 
02:35	65.6	65.6	65.6	74	57.1	2	9	90	0.00	29.494 
02:40	65.6	65.6	65.6	74	57.1	3	9	90	0.00	29.494 
02:45	65.6	65.6	65.6	74	57.1	2	5	68	0.00	29.485 
02:50	65.5	65.5	65.5	75	57.4	2	4	112	0.00	29.485 
02:55	65.5	65.5	65.5	75	57.4	2	6	90	0.00	29.485 
03:00	65.5	65.5	65.5	75	57.4	2	9	90	0.00	29.473 
03:05	65.5	65.5	65.5	75	57.4	2	9	112	0.00	29.473 
03:10	65.3	65.3	65.3	75	57.2	2	5	90	0.00	29.473 
03:15	65.2	65.2	65.2	75	57.1	2	6	90	0.00	29.468 
03:20	65.0	65.0	65.0	76	57.2	2	6	112	0.00	29.468 
03:25	65.0	65.0	65.0	76	57.2	2	5	68	0.00	29.468 
03:30	64.8	64.8	64.8	76	57.0	2	5	90	0.00	29.456 
03:35	64.7	64.7	64.7	77	57.3	2	9	90	0.00	29.456 
03:40	64.7	64.7	64.7	77	57.3	3	7	112	0.00	29.456 
03:45	64.5	64.5	64.5	77	57.1	2	5	68	0.00	29.441 
03:50	64.5	64.5	64.5	77	57.1	2	13	90	0.00	29.441 
03:55	64.3	64.3	64.3	78	57.3	2	5	90	0.00	29.441 
04:00	64.3	64.3	64.3	78	57.3	2	6	68	0.00	29.428 
04:05	64.3	64.3	64.3	78	57.3	3	9	68	0.00	29.428 
04:10	64.3	64.3	64.3	78	57.3	2	10	135	0.00	29.428 
04:15	64.3	64.3	64.3	78	57.3	2	5	90	0.00	29.421 
04:20	64.3	64.3	64.3	78	57.3	2	7	68	0.00	29.421 
04:25	64.2	64.2	64.2	78	57.2	2	6	68	0.00	29.421 
04:30	64.2	64.2	64.2	78	57.2	3	10	90	0.00	29.408 
04:35	64.3	64.3	64.3	77	56.9	2	9	90	0.00	29.408 
04:40	64.3	64.3	64.3	77	56.9	3	12	0	0.00	29.408 
04:45	64.5	64.5	64.5	77	57.1	3	7	90	0.00	29.398 
04:50	64.5	64.5	64.5	77	57.1	2	7	68	0.00	29.398 
04:55	64.5	64.5	64.5	77	57.1	3	7	68	0.00	29.398 
05:00	64.5	64.5	64.5	77	57.1	3	10	90	0.00	29.387 
05:05	64.7	64.7	64.7	77	57.3	3	7	90	0.00	29.387 
05:10	64.7	64.7	64.7	77	57.3	3	10	90	0.00	29.387 
05:15	64.8	64.8	64.8	77	57.4	4	11	90	0.00	29.379 
05:20	64.8	64.8	64.8	77	57.4	3	12	90	0.00	29.379 
05:25	64.8	64.8	64.8	77	57.4	3	7	90	0.00	29.379 
05:30	65.0	65.0	65.0	77	57.6	3	12	112	0.00	29.378 
05:35	65.0	65.0	65.0	77	57.6	3	7	90	0.00	29.378 
05:40	65.2	65.2	65.2	77	57.8	3	7	68	0.00	29.378 
05:45	65.3	65.3	65.3	77	57.9	3	12	90	0.00	29.365 
05:50	65.5	65.5	65.5	77	58.1	3	10	90	0.00	29.365 
05:55	65.5	65.5	65.5	77	58.1	3	11	90	0.00	29.365 
06:00	65.6	65.6	65.6	77	58.2	3	11	90	0.00	29.346 
06:05	65.8	65.8	65.8	77	58.4	4	10	90	0.00	29.346 
06:10	66.0	66.0	66.0	77	58.6	3	14	90	0.00	29.346 
06:15	66.3	66.3	66.3	77	58.9	4	11	90	0.00	29.348 
06:20	66.4	66.4	66.4	77	59.0	4	16	90	0.00	29.348 
06:25	66.4	66.4	66.4	77	59.0	3	13	90	0.00	29.348 
06:30	66.4	66.4	66.4	77	59.0	3	10	90	0.00	29.350 
06:35	66.6	66.6	66.6	77	59.2	2	9	112	0.00	29.350 
06:40	66.6	66.6	66.6	77	59.2	3	6	90	0.00	29.350 
06:45	66.8	66.8	66.8	77	59.3	2	11	68	0.00	29.353 
06:50	66.9	66.9	66.9	77	59.4	4	11	90	0.00	29.353 
06:55	67.1	67.1	67.1	77	59.6	4	10	90	0.00	29.353 
07:00	67.3	67.3	67.3	77	59.8	3	9	112	0.00	29.350 
07:05	67.4	67.4	67.4	77	59.9	3	8	112	0.00	29.350 
07:10	67.6	67.6	67.6	77	60.1	3	9	90	0.00	29.350 
07:15	67.6	67.6	67.6	77	60.1	2	6	90	0.00	29.345 
07:20	67.8	67.8	67.8	77	60.3	4	13	112	0.00	29.345 
07:25	67.9	67.9	67.9	77	60.4	3	11	90	0.00	29.345 
07:30	67.9	67.9	67.9	77	60.4	3	10	68	0.00	29.333 
07:35	68.1	68.1	68.1	76	60.2	3	6	112	0.00	29.333 
07:40	68.3	68.3	68.3	77	60.8	4	7	68	0.00	29.333 
07:45	68.3	68.3	68.3	76	60.4	4	14	90	0.00	29.326 
07:50	68.4	68.4	68.4	76	60.5	3	7	90	0.00	29.326 
07:55	68.4	68.4	68.4	76	60.5	4	14	90	0.00	29.326 
08:00	68.4	68.4	68.4	76	60.5	4	15	90	0.00	29.303 
08:05	68.4	68.4	68.4	76	60.5	4	10	68	0.00	29.303 
08:10	68.4	68.4	68.4	77	60.9	4	7	90	0.00	29.303 
08:15	68.4	68.4	68.4	77	60.9	4	9	112	0.00	29.303 
08:20	68.4	68.4	68.4	77	60.9	3	7	90	0.00	29.303 
08:25	68.4	68.4	68.4	77	60.9	4	8	90	0.00	29.303 
08:30	68.4	68.4	68.4	77	60.9	3	7	90	0.00	29.300 
08:35	68.6	68.6	68.6	77	61.1	4	8	90	0.00	29.300 
08:40	68.8	68.8	68.8	77	61.3	4	10	112	0.00	29.300 
08:45	68.8	68.8	68.8	76	60.9	4	11	90	0.00	29.288 
08:50	68.9	68.9	68.9	76	61.0	4	11	68	0.00	29.288 
08:55	68.9	68.9	68.9	76	61.0	3	7	112	0.00	29.288 
09:00	68.9	68.9	68.9	77	61.4	3	11	90	0.00	29.272 
09:05	68.9	68.9	68.9	76	61.0	5	13	90	0.00	29.272 
09:10	69.1	69.1	69.1	76	61.2	4	12	68	0.00	29.272 
09:15	69.1	69.1	69.1	76	61.2	2	7	90	0.00	29.267 
09:20	69.3	69.3	69.3	76	61.4	3	7	112	0.00	29.267 
09:25	69.3	69.3	69.3	76	61.4	4	11	90	0.00	29.267 
09:30	69.4	69.4	69.4	76	61.5	4	11	90	0.00	29.267 
09:35	69.4	69.4	69.4	76	61.5	3	9	90	0.00	29.267 
09:40	69.4	69.4	69.4	76	61.5	4	9	90	0.00	29.267 
09:45	69.6	69.6	69.6	76	61.7	4	9	90	0.00	29.256 
09:50	69.6	69.6	69.6	76	61.7	4	9	90	0.00	29.256 
09:55	69.6	69.6	69.6	76	61.7	3	10	90	0.00	29.256 
10:00	69.8	69.8	69.8	76	61.9	5	13	90	0.00	29.249 
10:05	69.8	69.8	69.8	76	61.9	3	11	90	0.00	29.249 
10:10	69.9	69.9	69.9	76	62.0	3	7	112	0.00	29.249 
10:15	70.1	70.1	70.1	75	61.8	4	12	90	0.00	29.238 
10:20	70.3	70.3	70.3	75	62.0	3	7	90	0.00	29.238 
10:25	70.4	70.4	70.4	74	61.7	4	14	68	0.00	29.238 
10:30	70.6	70.6	70.6	74	61.9	5	18	90	0.00	29.219 
10:35	70.8	70.8	70.8	74	62.1	4	14	90	0.00	29.219 
10:40	71.1	71.1	71.1	74	62.4	4	11	90	0.00	29.219 
10:45	71.1	71.1	71.1	75	62.8	5	14	90	0.00	29.203 
10:50	70.9	70.9	70.9	76	62.9	4	10	68	0.00	29.203 
10:55	70.4	70.4	70.4	78	63.2	5	17	68	0.01	29.203 
11:00	69.8	69.8	69.8	82	64.0	4	12	90	0.07	29.188 
11:05	68.6	68.6	68.6	85	63.9	7	24	270	0.04	29.188 
11:10	67.1	67.1	67.1	85	62.4	7	19	248	0.01	29.188 
11:15	66.0	66.0	66.0	85	61.4	6	15	248	0.01	29.253 
11:20	65.2	65.2	65.2	85	60.6	6	12	248	0.00	29.253 
11:25	64.8	64.8	64.8	86	60.5	3	7	248	0.00	29.253 
11:30	64.3	64.3	64.3	87	60.3	4	10	248	0.00	29.250 
11:35	63.9	63.9	63.9	87	59.9	4	12	248	0.00	29.250 
11:40	63.7	63.7	63.7	87	59.8	3	9	248	0.00	29.250 
11:45	63.5	63.5	63.5	88	59.9	3	9	248	0.00	29.259 
11:50	63.4	63.4	63.4	88	59.8	2	9	248	0.01	29.259 
11:55	63.4	63.4	63.4	89	60.1	2	6	270	0.00	29.259 
12:00	63.4	63.4	63.4	90	60.4	2	5	248	0.01	29.275 
12:05	63.4	63.4	63.4	90	60.4	3	10	248	0.00	29.275 
12:10	63.4	63.4	63.4	91	60.7	3	6	248	0.01	29.275 
12:15	63.4	63.4	63.4	91	60.7	2	7	225	0.01	29.297 
12:20	63.2	63.2	63.2	91	60.5	3	10	248	0.00	29.297 
12:25	63.2	63.2	63.2	91	60.5	4	10	248	0.01	29.297 
12:30	63.1	63.1	63.1	90	60.1	4	10	225	0.00	29.305 
12:35	62.9	62.9	62.9	89	59.6	3	11	248	0.00	29.305 
12:40	62.6	62.6	62.6	87	58.7	5	14	248	0.00	29.305 
12:45	62.4	62.4	62.4	81	56.5	6	15	270	0.00	29.300 
12:50	62.6	62.6	62.6	79	56.0	4	11	248	0.00	29.300 
12:55	62.3	62.3	62.3	77	55.0	4	10	248	0.00	29.300 
13:00	62.3	62.3	62.3	76	54.6	4	9	248	0.00	29.315 
13:05	62.4	62.4	62.4	74	54.0	4	10	248	0.00	29.315 
13:10	62.6	62.6	62.6	74	54.2	2	11	248	0.00	29.315 
13:15	62.6	62.6	62.6	73	53.8	3	9	248	0.00	29.298 
13:20	62.7	62.7	62.7	73	53.9	4	12	248	0.00	29.298 
13:25	62.9	62.9	62.9	73	54.1	3	7	248	0.00	29.298 
13:30	63.2	63.2	63.2	71	53.6	3	7	270	0.00	29.288 
13:35	63.2	63.2	63.2	71	53.6	3	7	248	0.00	29.288 
13:40	63.2	63.2	63.2	71	53.6	3	10	225	0.00	29.288 
13:45	63.1	63.1	63.1	70	53.2	4	12	248	0.00	29.314 
13:50	62.9	62.9	62.9	64	50.5	6	15	248	0.00	29.314 
13:55	62.9	62.9	62.9	61	49.2	6	15	270	0.00	29.314 
14:00	62.6	62.6	62.6	63	49.8	5	12	248	0.00	29.318 
14:05	62.4	62.4	62.4	63	49.6	5	12	248	0.00	29.318 
14:10	62.3	62.3	62.3	63	49.5	5	12	248	0.00	29.318 
14:15	62.3	62.3	62.3	63	49.5	5	14	270	0.00	29.325 
14:20	62.1	62.1	62.1	64	49.8	4	12	248	0.00	29.325 
14:25	62.0	62.0	62.0	65	50.1	4	8	270	0.00	29.325 
14:30	61.8	61.8	61.8	65	49.9	4	11	248	0.00	29.328 
14:35	61.6	61.6	61.6	65	49.7	6	11	248	0.00	29.328 
14:40	61.8	61.8	61.8	65	49.9	3	13	248	0.00	29.328 
14:45	62.0	62.0	62.0	65	50.1	3	7	248	0.00	29.305 
14:50	61.8	61.8	61.8	64	49.5	4	11	270	0.00	29.305 
14:55	61.6	61.6	61.6	64	49.3	4	10	248	0.00	29.305 
15:00	61.6	61.6	61.6	63	48.9	4	13	248	0.00	29.331 
15:05	62.1	62.1	62.1	62	48.9	4	10	248	0.00	29.331 
15:10	62.4	62.4	62.4	57	47.0	6	13	270	0.00	29.331 
15:15	62.4	62.4	62.4	56	46.5	7	17	248	0.00	29.335 
15:20	62.6	62.6	62.6	55	46.2	6	18	248	0.00	29.335 
15:25	62.1	62.1	62.1	55	45.7	6	12	270	0.00	29.335 
15:30	62.3	62.3	62.3	54	45.4	7	17	270	0.00	29.347 
15:35	62.6	62.6	62.6	55	46.2	4	11	248	0.00	29.347 
15:40	62.7	62.7	62.7	55	46.3	5	16	248	0.00	29.347 
15:45	62.4	62.4	62.4	53	45.0	5	12	270	0.00	29.353 
15:50	62.9	62.9	62.9	53	45.5	5	14	270	0.00	29.353 
15:55	63.7	63.7	63.7	54	46.7	5	14	248	0.00	29.353 
16:00	64.2	64.2	64.2	48	44.1	4	11	270	0.00	29.351 
16:05	64.2	64.2	64.2	48	44.1	5	14	270	0.00	29.351 
16:10	64.3	64.3	64.3	45	42.5	5	17	270	0.00	29.351 
16:15	64.3	64.3	64.3	44	41.9	5	12	225	0.00	29.357 
16:20	64.2	64.2	64.2	43	41.2	5	11	270	0.00	29.357 
16:25	64.0	64.0	64.0	42	40.4	5	11	248	0.00	29.357 
16:30	63.9	63.9	63.9	42	40.4	6	14	270	0.00	29.368 
16:35	63.9	63.9	63.9	43	41.0	4	9	248	0.00	29.368 
16:40	63.9	63.9	63.9	45	42.1	4	10	248	0.00	29.368 
16:45	63.9	63.9	63.9	44	41.6	4	10	225	0.00	29.370 
16:50	63.9	63.9	63.9	43	41.0	5	11	248	0.00	29.370 
16:55	64.0	64.0	64.0	43	41.1	3	7	248	0.00	29.370 
17:00	64.0	64.0	64.0	44	41.6	3	10	248	0.00	29.376 
17:05	63.9	63.9	63.9	43	41.0	5	14	248	0.00	29.376 
17:10	63.5	63.5	63.5	41	39.4	5	17	225	0.00	29.376 
17:15	63.5	63.5	63.5	37	36.8	6	16	248	0.00	29.382 
17:20	63.4	63.4	63.4	35	35.3	5	17	270	0.00	29.382 
17:25	63.4	63.4	63.4	36	36.0	5	16	248	0.00	29.382 
17:30	63.4	63.4	63.4	37	36.7	4	10	225	0.00	29.394 
17:35	63.2	63.2	63.2	37	36.5	5	12	270	0.00	29.394 
17:40	63.2	63.2	63.2	37	36.5	4	9	248	0.00	29.394 
17:45	63.1	63.1	63.1	37	36.4	4	12	248	0.00	29.401 
17:50	62.9	62.9	62.9	39	37.6	5	17	248	0.00	29.401 
17:55	62.7	62.7	62.7	40	38.0	3	7	248	0.00	29.401 
18:00	62.6	62.6	62.6	40	37.9	3	9	248	0.00	29.410 
18:05	62.6	62.6	62.6	41	38.6	3	7	248	0.00	29.410 
18:10	62.3	62.3	62.3	41	38.3	2	6	248	0.00	29.410 
18:15	62.3	62.3	62.3	40	37.7	5	13	248	0.00	29.417 
18:20	62.3	62.3	62.3	39	37.0	5	12	248	0.00	29.417 
18:25	62.3	62.3	62.3	39	37.0	5	14	248	0.00	29.417 
18:30	62.3	62.3	62.3	39	37.0	4	13	248	0.00	29.428 
18:35	62.0	62.0	62.0	40	37.4	3	7	248	0.00	29.428 
18:40	62.0	62.0	62.0	40	37.4	3	9	248	0.00	29.428 
18:45	62.0	62.0	62.0	41	38.0	3	9	248	0.00	29.431 
18:50	61.6	61.6	61.6	41	37.7	1	5	248	0.00	29.431 
18:55	61.2	61.2	61.2	43	38.5	1	4	248	0.00	29.431 
19:00	60.9	60.9	60.9	43	38.3	1	7	225	0.00	29.439 
19:05	60.5	60.5	60.5	43	37.9	2	5	248	0.00	29.439 
19:10	60.5	60.5	60.5	44	38.5	1	6	248	0.00	29.439 
19:15	60.4	60.4	60.4	45	39.0	1	4	248	0.00	29.449 
19:20	60.1	60.1	60.1	45	38.7	1	4	248	0.00	29.449 
19:25	59.9	59.9	59.9	46	39.1	1	5	248	0.00	29.449 
19:30	59.8	59.8	59.8	47	39.5	1	4	248	0.00	29.462 
19:35	59.6	59.6	59.6	48	39.9	1	4	248	0.00	29.462 
19:40	59.5	59.5	59.5	49	40.3	1	4	248	0.00	29.462 
19:45	59.3	59.3	59.3	50	40.7	1	3	248	0.00	29.473 
19:50	59.2	59.2	59.2	52	41.6	1	6	90	0.00	29.473 
19:55	58.9	58.9	58.9	53	41.8	1	6	270	0.00	29.473 
20:00	58.7	58.7	58.7	54	42.1	1	4	270	0.00	29.482 
20:05	58.7	58.7	58.7	54	42.1	1	4	292	0.00	29.482 
20:10	58.7	58.7	58.7	55	42.6	1	6	248	0.00	29.482 
20:15	58.6	58.6	58.6	55	42.5	1	4	248	0.00	29.494 
20:20	58.4	58.4	58.4	56	42.8	1	4	248	0.00	29.494 
20:25	58.4	58.4	58.4	56	42.8	0	3	248	0.00	29.494 
20:30	58.4	58.4	58.4	56	42.8	1	4	248	0.00	29.508 
20:35	58.6	58.6	58.6	55	42.5	1	4	248	0.00	29.508 
20:40	58.7	58.7	58.7	55	42.6	1	5	270	0.00	29.508 
20:45	58.7	58.7	58.7	55	42.6	2	6	248	0.00	29.520 
20:50	58.7	58.7	58.7	55	42.6	3	6	248	0.00	29.520 
20:55	58.7	58.7	58.7	55	42.6	1	5	248	0.00	29.520 
21:00	58.7	58.7	58.7	55	42.6	2	5	248	0.00	29.536 
21:05	58.9	58.9	58.9	55	42.8	2	7	248	0.00	29.536 
21:10	58.9	58.9	58.9	55	42.8	2	6	248	0.00	29.536 
21:15	58.6	58.6	58.6	55	42.5	1	6	248	0.00	29.545 
21:20	58.4	58.4	58.4	55	42.3	1	5	248	0.00	29.545 
21:25	58.3	58.3	58.3	56	42.7	1	3	248	0.00	29.545 
21:30	58.0	58.0	58.0	56	42.4	1	4	248	0.00	29.558 
21:35	57.8	57.8	57.8	56	42.2	1	4	248	0.00	29.558 
21:40	57.8	57.8	57.8	55	41.7	1	5	248	0.00	29.558 
21:45	57.8	57.8	57.8	55	41.7	1	5	248	0.00	29.561 
21:50	57.5	57.5	57.5	56	41.9	1	3	225	0.00	29.561 
21:55	57.2	57.2	57.2	56	41.6	0	2	225	0.00	29.561 
22:00	56.7	56.7	56.7	60	43.0	0	1	225	0.00	29.574 
22:05	56.0	56.0	56.0	63	43.6	0	0	---	0.00	29.574 
22:10	55.3	55.3	55.3	66	44.1	0	1	225	0.00	29.574 
22:15	54.7	54.7	54.7	69	44.7	0	0	---	0.00	29.583 
22:20	54.2	54.2	54.2	72	45.4	0	1	225	0.00	29.583 
22:25	53.9	53.9	53.9	74	45.8	0	1	225	0.00	29.583 
22:30	53.8	53.8	53.8	76	46.4	0	3	270	0.00	29.592 
22:35	53.8	53.8	53.8	76	46.4	0	1	270	0.00	29.592 
22:40	53.8	53.8	53.8	76	46.4	0	2	270	0.00	29.592 
22:45	53.6	53.6	53.6	75	45.9	0	2	270	0.00	29.598 
22:50	53.6	53.6	53.6	74	45.5	0	2	270	0.00	29.598 
22:55	53.8	53.8	53.8	73	45.3	1	5	225	0.00	29.598 
23:00	53.9	53.9	53.9	72	45.1	1	4	225	0.00	29.607 
23:05	54.1	54.1	54.1	71	44.9	1	3	270	0.00	29.607 
23:10	54.2	54.2	54.2	69	44.3	1	3	225	0.00	29.607 
23:15	54.2	54.2	54.2	68	43.9	1	3	225	0.00	29.615 
23:20	54.4	54.4	54.4	67	43.7	0	2	225	0.00	29.615 
23:25	54.5	54.5	54.5	67	43.8	0	2	225	0.00	29.615 
23:30	54.5	54.5	54.5	70	44.9	1	4	248	0.00	29.627 
23:35	54.4	54.4	54.4	74	46.3	1	3	248	0.00	29.627 
23:40	54.2	54.2	54.2	77	47.1	1	5	248	0.00	29.627 
23:45	54.2	54.2	54.2	81	48.5	1	9	248	0.00	29.628 
23:50	53.9	53.9	53.9	82	48.5	1	4	225	0.00	29.628 
23:55	53.8	53.8	53.8	84	49.1	0	5	270	0.00	29.628 

CoCoRaHS
IN-AL-39
A2 Web Hosting
Creative Commons License
GoDaddy
search engine by freefind advanced

loaded 2018-11-15 03:33:44 • last modified 2010-11-18 10:43:29
Privacy PolicyDisclaimer
• wx.awcolley.com is powered by PmWiki v.2002016 •
• all content (unless otherwise noted) © 2018 A W Colley